createdAt,value
2022-09-17T00:00:37.385Z,92.90
2022-09-17T00:05:39.493Z,92.21
2022-09-17T00:10:43.814Z,92.10
2022-09-17T00:15:47.427Z,91.90
2022-09-17T00:20:49.065Z,92.03
2022-09-17T00:25:50.734Z,92.28
2022-09-17T00:30:53.787Z,91.49
2022-09-17T00:35:59.676Z,92.13
2022-09-17T00:41:02.892Z,92.14
2022-09-17T00:46:16.931Z,92.20
2022-09-17T00:51:23.255Z,91.74
2022-09-17T00:56:28.333Z,91.93
2022-09-17T01:01:32.432Z,91.92
2022-09-17T01:06:41.553Z,91.57
2022-09-17T01:11:57.468Z,91.31
2022-09-17T01:17:13.380Z,91.60
2022-09-17T01:22:20.521Z,91.92
2022-09-17T01:27:58.918Z,91.95
2022-09-17T01:33:12.709Z,91.18
2022-09-17T01:38:25.493Z,90.66
2022-09-17T01:43:34.393Z,91.18
2022-09-17T01:48:41.902Z,91.30
2022-09-17T01:53:48.902Z,90.86
2022-09-17T01:58:58.082Z,91.18
2022-09-17T02:04:08.007Z,91.25
2022-09-17T02:09:15.647Z,91.48
2022-09-17T02:14:21.917Z,90.83
2022-09-17T02:19:28.166Z,90.65
2022-09-17T02:24:37.811Z,90.70
2022-09-17T02:29:43.619Z,90.81
2022-09-17T02:34:46.814Z,91.07
2022-09-17T02:39:48.617Z,90.94
2022-09-17T02:45:03.230Z,90.83
2022-09-17T02:50:24.561Z,90.74
2022-09-17T02:55:35.955Z,90.60
2022-09-17T03:00:38.026Z,90.90
2022-09-17T03:05:42.841Z,90.63
2022-09-17T03:10:44.993Z,90.24
2022-09-17T03:15:46.682Z,90.24
2022-09-17T03:20:50.040Z,90.16
2022-09-17T03:25:51.711Z,90.52
2022-09-17T03:30:54.080Z,90.92
2022-09-17T03:35:57.311Z,91.14
2022-09-17T03:40:59.551Z,91.36
2022-09-17T03:46:01.614Z,91.09
2022-09-17T03:51:06.238Z,90.65
2022-09-17T03:56:08.270Z,90.77
2022-09-17T04:01:10.239Z,91.62
2022-09-17T04:06:13.234Z,91.74
2022-09-17T04:11:14.875Z,92.03
2022-09-17T04:16:16.587Z,92.60
2022-09-17T04:21:19.649Z,92.84
2022-09-17T04:26:21.454Z,92.96
2022-09-17T04:31:23.186Z,93.17
2022-09-17T04:36:26.197Z,92.98
2022-09-17T04:41:28.071Z,92.98
2022-09-17T04:46:30.031Z,92.58
2022-09-17T04:51:33.191Z,92.10
2022-09-17T04:56:34.858Z,91.88
2022-09-17T05:01:36.731Z,91.99
2022-09-17T05:06:39.808Z,92.33
2022-09-17T05:11:41.690Z,92.85
2022-09-17T05:16:43.398Z,94.26
2022-09-17T05:21:46.548Z,95.30
2022-09-17T05:26:48.216Z,96.41
2022-09-17T05:31:49.897Z,96.85
2022-09-17T05:36:52.966Z,96.90
2022-09-17T05:41:55.418Z,97.32
2022-09-17T05:46:57.860Z,96.70
2022-09-17T05:52:04.110Z,96.43
2022-09-17T05:57:05.957Z,95.74
2022-09-17T06:02:07.647Z,95.30
2022-09-17T06:07:10.644Z,94.75
2022-09-17T06:12:12.431Z,93.42
2022-09-17T06:17:16.185Z,93.03
2022-09-17T06:22:22.510Z,93.06
2022-09-17T06:27:24.128Z,90.58
2022-09-17T06:32:26.084Z,90.11
2022-09-17T06:37:29.648Z,88.03
2022-09-17T06:42:31.499Z,87.22
2022-09-17T06:47:33.890Z,87.35
2022-09-17T06:52:36.805Z,86.14
2022-09-17T06:57:38.374Z,85.48
2022-09-17T07:02:40.017Z,84.81
2022-09-17T07:07:43.426Z,85.45
2022-09-17T07:12:49.671Z,84.39
2022-09-17T07:17:51.718Z,83.14
2022-09-17T07:22:58.062Z,80.03
2022-09-17T07:27:59.805Z,79.96
2022-09-17T07:33:01.837Z,79.98
2022-09-17T07:38:04.908Z,80.08
2022-09-17T07:43:06.566Z,80.09
2022-09-17T07:48:08.572Z,79.05
2022-09-17T07:53:11.573Z,78.18
2022-09-17T07:58:14.248Z,78.84
2022-09-17T08:03:16.890Z,77.98
2022-09-17T08:08:21.363Z,78.07
2022-09-17T08:13:23.596Z,76.17
2022-09-17T08:18:25.600Z,75.06
2022-09-17T08:23:30.237Z,74.23
2022-09-17T08:28:32.037Z,72.16
2022-09-17T08:33:36.941Z,71.85
2022-09-17T08:38:40.508Z,73.91
2022-09-17T08:43:50.052Z,73.20
2022-09-17T08:49:01.470Z,73.05
2022-09-17T08:54:13.123Z,69.77
2022-09-17T08:59:23.934Z,70.64
2022-09-17T09:04:57.044Z,69.61
2022-09-17T09:10:10.643Z,68.72
2022-09-17T09:15:25.226Z,68.41
2022-09-17T09:20:31.065Z,66.85
2022-09-17T09:25:41.109Z,65.18
2022-09-17T09:30:55.530Z,64.03
2022-09-17T09:35:57.387Z,64.52
2022-09-17T09:41:09.476Z,59.79
2022-09-17T09:46:29.327Z,58.71
2022-09-17T09:51:40.670Z,50.54
2022-09-17T09:56:54.116Z,51.50
2022-09-17T10:01:55.847Z,57.73
2022-09-17T10:07:02.535Z,49.68
2022-09-17T10:12:17.483Z,59.35
2022-09-17T10:17:23.683Z,61.14
2022-09-17T10:22:30.494Z,57.98
2022-09-17T10:27:34.637Z,53.93
2022-09-17T10:32:36.360Z,53.23
2022-09-17T10:37:46.751Z,55.28
2022-09-17T10:42:51.575Z,56.35
2022-09-17T10:47:55.370Z,55.21
2022-09-17T10:53:01.852Z,56.93
2022-09-17T10:58:18.248Z,57.28
2022-09-17T11:03:47.473Z,58.96
2022-09-17T11:09:04.029Z,64.96
2022-09-17T11:14:20.407Z,66.91
2022-09-17T11:19:33.393Z,66.15
2022-09-17T11:25:07.571Z,64.22
2022-09-17T11:30:17.083Z,58.73
2022-09-17T11:35:23.691Z,57.34
2022-09-17T11:40:34.997Z,57.59
2022-09-17T11:45:41.202Z,57.72
2022-09-17T11:50:47.363Z,59.62
2022-09-17T11:55:54.630Z,55.46
2022-09-17T12:01:06.862Z,53.84
2022-09-17T12:06:14.530Z,53.04
2022-09-17T12:11:20.512Z,54.65
2022-09-17T12:16:27.231Z,58.05
2022-09-17T12:21:33.340Z,56.59
2022-09-17T12:26:57.171Z,51.51
2022-09-17T12:32:05.635Z,51.38
2022-09-17T12:37:15.026Z,51.55
2022-09-17T12:42:32.843Z,51.63
2022-09-17T12:47:55.640Z,53.11
2022-09-17T12:53:14.322Z,55.22
2022-09-17T12:58:29.763Z,51.33
2022-09-17T13:03:40.075Z,51.82
2022-09-17T13:09:06.553Z,52.28
2022-09-17T13:14:17.299Z,53.08
2022-09-17T13:19:30.842Z,52.86
2022-09-17T13:24:34.118Z,49.81
2022-09-17T13:29:58.284Z,49.22
2022-09-17T13:35:45.158Z,46.99
2022-09-17T13:40:47.507Z,47.14
2022-09-17T13:46:22.944Z,48.78
2022-09-17T13:51:54.318Z,47.76
2022-09-17T13:57:15.109Z,46.55
2022-09-17T14:02:35.893Z,46.09
2022-09-17T14:07:47.310Z,47.04
2022-09-17T14:12:54.126Z,48.34
2022-09-17T14:17:55.759Z,51.21
2022-09-17T14:23:00.702Z,54.88
2022-09-17T14:28:09.643Z,56.68
2022-09-17T14:33:16.946Z,56.18
2022-09-17T14:38:23.417Z,55.21
2022-09-17T14:43:37.814Z,55.70
2022-09-17T14:48:39.488Z,56.67
2022-09-17T14:53:42.750Z,55.03
2022-09-17T14:58:50.885Z,51.40
2022-09-17T15:04:20.441Z,51.67
2022-09-17T15:09:26.177Z,52.28
2022-09-17T15:14:29.231Z,53.46
2022-09-17T15:19:35.130Z,52.95
2022-09-17T15:24:44.305Z,54.27
2022-09-17T15:29:51.419Z,53.69
2022-09-17T15:35:19.827Z,55.23
2022-09-17T15:40:28.409Z,56.24
2022-09-17T15:45:31.641Z,56.07
2022-09-17T15:50:34.962Z,57.25
2022-09-17T15:55:39.595Z,58.40
2022-09-17T16:00:41.209Z,59.97
2022-09-17T16:05:47.086Z,61.33
2022-09-17T16:10:50.999Z,60.54
2022-09-17T16:15:52.633Z,60.49
2022-09-17T16:20:54.705Z,60.62
2022-09-17T16:25:58.069Z,59.85
2022-09-17T16:31:00.411Z,59.96
2022-09-17T16:36:02.393Z,60.11
2022-09-17T16:41:06.500Z,61.61
2022-09-17T16:46:10.125Z,61.81
2022-09-17T16:51:13.801Z,62.04
2022-09-17T16:56:16.772Z,62.31
2022-09-17T17:01:18.455Z,63.86
2022-09-17T17:06:22.364Z,64.26
2022-09-17T17:11:25.816Z,65.36
2022-09-17T17:16:27.513Z,66.91
2022-09-17T17:21:29.112Z,67.40
2022-09-17T17:26:32.309Z,68.55
2022-09-17T17:31:33.958Z,69.09
2022-09-17T17:36:35.633Z,69.82
2022-09-17T17:41:39.054Z,69.90
2022-09-17T17:46:41.038Z,70.49
2022-09-17T17:51:42.713Z,70.88
2022-09-17T17:56:45.825Z,75.04
2022-09-17T18:01:47.555Z,81.49
2022-09-17T18:06:49.870Z,84.42
2022-09-17T18:11:52.995Z,86.53
2022-09-17T18:16:54.793Z,88.29
2022-09-17T18:21:56.601Z,89.34
2022-09-17T18:26:59.552Z,89.86
2022-09-17T18:32:01.454Z,90.81
2022-09-17T18:37:03.153Z,90.97
2022-09-17T18:42:06.594Z,91.34
2022-09-17T18:47:08.288Z,91.60
2022-09-17T18:52:10.012Z,92.57
2022-09-17T18:57:13.549Z,92.75
2022-09-17T19:02:15.208Z,92.55
2022-09-17T19:07:17.118Z,92.65
2022-09-17T19:12:20.318Z,93.10
2022-09-17T19:17:21.935Z,92.66
2022-09-17T19:22:24.024Z,93.12
2022-09-17T19:27:27.405Z,93.72
2022-09-17T19:32:30.463Z,93.84
2022-09-17T19:37:32.396Z,93.77
2022-09-17T19:42:35.514Z,94.00
2022-09-17T19:47:37.235Z,94.08
2022-09-17T19:52:40.444Z,94.08
2022-09-17T19:57:43.933Z,94.51
2022-09-17T20:02:45.590Z,93.44
2022-09-17T20:07:47.612Z,93.11
2022-09-17T20:12:50.646Z,93.25
2022-09-17T20:17:52.353Z,93.47
2022-09-17T20:22:54.216Z,93.97
2022-09-17T20:27:57.346Z,93.92
2022-09-17T20:32:58.978Z,93.45
2022-09-17T20:43:23.969Z,93.52
2022-09-17T20:48:25.637Z,93.99
2022-09-17T20:53:28.766Z,94.01
2022-09-17T20:58:33.510Z,94.12
2022-09-17T21:03:35.446Z,94.42
2022-09-17T21:08:37.378Z,94.14
2022-09-17T21:13:41.353Z,94.04
2022-09-17T21:18:43.988Z,94.38
2022-09-17T21:23:45.708Z,94.25
2022-09-17T21:28:50.643Z,94.64
2022-09-17T21:33:54.349Z,95.02
2022-09-17T21:38:57.669Z,95.06
2022-09-17T21:44:00.893Z,94.95
2022-09-17T21:49:03.891Z,95.09
2022-09-17T21:54:07.343Z,94.58
2022-09-17T21:59:13.690Z,94.51
2022-09-17T22:04:17.464Z,93.91
2022-09-17T22:09:21.249Z,93.63
2022-09-17T22:14:24.920Z,94.00
2022-09-17T22:19:26.736Z,94.26
2022-09-17T22:24:28.524Z,94.14
2022-09-17T22:29:31.838Z,94.08
2022-09-17T22:34:33.608Z,93.69
2022-09-17T22:39:35.476Z,93.83
2022-09-17T22:44:38.547Z,94.11
2022-09-17T22:49:40.218Z,93.91
2022-09-17T22:54:41.882Z,94.32
2022-09-17T22:59:44.852Z,95.53
2022-09-17T23:04:46.499Z,95.45
2022-09-17T23:09:48.572Z,95.42
2022-09-17T23:14:51.778Z,94.88
2022-09-17T23:19:53.918Z,94.87
2022-09-17T23:24:55.628Z,94.77
2022-09-17T23:29:58.753Z,94.75
2022-09-17T23:35:00.520Z,95.29
2022-09-17T23:40:05.912Z,95.47
2022-09-17T23:45:09.598Z,95.94
2022-09-17T23:50:11.627Z,95.34
2022-09-17T23:55:13.351Z,95.13
